createdAt,value
2017-09-23T00:00:37.428Z,0
2017-09-23T00:01:37.452Z,0
2017-09-23T00:02:37.779Z,0
2017-09-23T00:03:37.493Z,0
2017-09-23T00:04:37.516Z,0
2017-09-23T00:05:37.851Z,0
2017-09-23T00:06:37.563Z,0
2017-09-23T00:07:37.889Z,0
2017-09-23T00:08:37.622Z,0
2017-09-23T00:09:37.671Z,0
2017-09-23T00:10:37.641Z,0
2017-09-23T00:11:37.663Z,0
2017-09-23T00:12:37.681Z,0
2017-09-23T00:13:37.704Z,0
2017-09-23T00:14:37.747Z,0
2017-09-23T00:15:37.755Z,0
2017-09-23T00:16:37.769Z,0
2017-09-23T00:17:37.789Z,0
2017-09-23T00:18:37.810Z,0
2017-09-23T00:19:37.825Z,0
2017-09-23T00:20:37.853Z,0
2017-09-23T00:21:37.867Z,0
2017-09-23T00:22:37.909Z,0
2017-09-23T00:23:37.921Z,0
2017-09-23T00:24:37.954Z,0
2017-09-23T00:25:37.958Z,0
2017-09-23T00:26:37.985Z,0
2017-09-23T00:27:38.012Z,0
2017-09-23T00:28:38.075Z,0
2017-09-23T00:29:38.054Z,0
2017-09-23T00:30:38.384Z,0
2017-09-23T00:31:38.091Z,0
2017-09-23T00:32:38.106Z,0
2017-09-23T00:33:38.149Z,0
2017-09-23T00:34:38.172Z,0
2017-09-23T00:35:38.168Z,0
2017-09-23T00:36:38.217Z,0
2017-09-23T00:37:38.212Z,0
2017-09-23T00:38:38.546Z,0
2017-09-23T00:39:38.259Z,0
2017-09-23T00:40:38.276Z,0
2017-09-23T00:41:38.295Z,0
2017-09-23T00:42:38.324Z,0
2017-09-23T00:43:38.339Z,0
2017-09-23T00:44:38.359Z,0
2017-09-23T00:45:38.738Z,0
2017-09-23T00:46:38.407Z,0
2017-09-23T00:47:38.425Z,0
2017-09-23T00:48:38.447Z,0
2017-09-23T00:49:38.465Z,0
2017-09-23T00:50:38.492Z,0
2017-09-23T00:51:38.507Z,0
2017-09-23T00:52:38.538Z,0
2017-09-23T00:53:38.543Z,0
2017-09-23T00:54:38.569Z,0
2017-09-23T00:55:38.584Z,0
2017-09-23T00:56:38.608Z,0
2017-09-23T00:57:38.633Z,0
2017-09-23T00:58:38.644Z,0
2017-09-23T00:59:38.982Z,0
2017-09-23T01:00:38.748Z,0
2017-09-23T01:01:38.717Z,0
2017-09-23T01:02:39.356Z,0
2017-09-23T01:03:38.752Z,0
2017-09-23T01:04:38.776Z,0
2017-09-23T01:05:38.789Z,0
2017-09-23T01:06:38.818Z,0
2017-09-23T01:07:38.838Z,0
2017-09-23T01:08:38.858Z,0
2017-09-23T01:09:39.492Z,0
2017-09-23T01:10:38.902Z,0
2017-09-23T01:11:38.916Z,0
2017-09-23T01:12:38.943Z,0
2017-09-23T01:13:38.962Z,0
2017-09-23T01:14:39.323Z,0
2017-09-23T01:15:39.049Z,0
2017-09-23T01:16:39.028Z,0
2017-09-23T01:17:39.051Z,0
2017-09-23T01:18:39.072Z,0
2017-09-23T01:19:39.095Z,0
2017-09-23T01:20:39.117Z,0
2017-09-23T01:21:39.125Z,0
2017-09-23T01:22:39.454Z,0
2017-09-23T01:23:39.160Z,0
2017-09-23T01:24:39.194Z,0
2017-09-23T01:25:39.267Z,0
2017-09-23T01:26:39.224Z,0
2017-09-23T01:27:39.261Z,0
2017-09-23T01:28:39.279Z,0
2017-09-23T01:29:39.304Z,0
2017-09-23T01:30:39.360Z,0
2017-09-23T01:31:39.337Z,0
2017-09-23T01:32:39.690Z,0
2017-09-23T01:33:39.687Z,0
2017-09-23T01:34:39.409Z,0
2017-09-23T01:35:39.415Z,0
2017-09-23T01:36:39.431Z,0
2017-09-23T01:37:39.454Z,0
2017-09-23T01:38:39.469Z,0
2017-09-23T01:39:39.496Z,0
2017-09-23T01:40:39.528Z,0
2017-09-23T01:41:39.583Z,0
2017-09-23T01:42:39.559Z,0
2017-09-23T01:43:39.585Z,0
2017-09-23T01:44:39.595Z,0
2017-09-23T01:45:39.613Z,0
2017-09-23T01:46:39.702Z,0
2017-09-23T01:47:39.659Z,0
2017-09-23T01:48:39.683Z,0
2017-09-23T01:49:39.705Z,0
2017-09-23T01:50:39.722Z,0
2017-09-23T01:51:39.745Z,0
2017-09-23T01:52:39.763Z,0
2017-09-23T01:53:40.089Z,0
2017-09-23T01:54:39.804Z,0
2017-09-23T01:55:39.837Z,0
2017-09-23T01:56:40.173Z,0
2017-09-23T01:57:39.864Z,0
2017-09-23T01:58:39.883Z,0
2017-09-23T01:59:39.904Z,0
2017-09-23T02:00:39.928Z,0
2017-09-23T02:01:39.947Z,0
2017-09-23T02:02:40.291Z,0
2017-09-23T02:03:39.989Z,0
2017-09-23T02:04:40.021Z,0
2017-09-23T02:05:40.036Z,0
2017-09-23T02:06:40.056Z,0
2017-09-23T02:07:40.072Z,0
2017-09-23T02:08:40.119Z,0
2017-09-23T02:09:40.111Z,0
2017-09-23T02:10:40.147Z,0
2017-09-23T02:11:40.468Z,0
2017-09-23T02:12:40.483Z,0
2017-09-23T02:13:40.197Z,0
2017-09-23T02:14:40.215Z,0
2017-09-23T02:15:40.233Z,0
2017-09-23T02:16:40.260Z,0
2017-09-23T02:17:40.328Z,0
2017-09-23T02:18:40.315Z,0
2017-09-23T02:19:40.331Z,0
2017-09-23T02:20:40.648Z,0
2017-09-23T02:21:40.356Z,0
2017-09-23T02:22:40.381Z,0
2017-09-23T02:23:40.391Z,0
2017-09-23T02:24:40.435Z,0
2017-09-23T02:25:40.438Z,0
2017-09-23T02:26:40.463Z,0
2017-09-23T02:27:40.487Z,0
2017-09-23T02:28:40.504Z,0
2017-09-23T02:29:40.533Z,0
2017-09-23T02:30:40.538Z,0
2017-09-23T02:31:40.563Z,0
2017-09-23T02:32:40.589Z,0
2017-09-23T02:33:40.658Z,0
2017-09-23T02:34:40.626Z,0
2017-09-23T02:35:40.641Z,0
2017-09-23T02:36:40.673Z,0
2017-09-23T02:37:41.004Z,0
2017-09-23T02:38:41.035Z,0
2017-09-23T02:39:40.729Z,0
2017-09-23T02:40:40.768Z,0
2017-09-23T02:41:40.773Z,0
2017-09-23T02:42:40.792Z,0
2017-09-23T02:43:40.813Z,0
2017-09-23T02:44:40.831Z,0
2017-09-23T02:45:40.861Z,0
2017-09-23T02:46:40.869Z,0
2017-09-23T02:47:40.886Z,0
2017-09-23T02:48:41.274Z,0
2017-09-23T02:49:40.925Z,0
2017-09-23T02:50:40.946Z,0
2017-09-23T02:51:40.971Z,0
2017-09-23T02:52:41.000Z,0
2017-09-23T02:53:41.011Z,0
2017-09-23T02:54:41.036Z,0
2017-09-23T02:55:41.368Z,0
2017-09-23T02:56:41.103Z,0
2017-09-23T02:57:41.094Z,0
2017-09-23T02:58:41.113Z,0
2017-09-23T02:59:41.453Z,0
2017-09-23T03:00:41.463Z,0
2017-09-23T03:01:41.504Z,0
2017-09-23T03:02:41.509Z,0
2017-09-23T03:03:41.221Z,0
2017-09-23T03:04:41.239Z,0
2017-09-23T03:05:41.259Z,0
2017-09-23T03:06:41.643Z,0
2017-09-23T03:07:41.301Z,0
2017-09-23T03:08:41.315Z,0
2017-09-23T03:09:41.341Z,0
2017-09-23T03:10:41.356Z,0
2017-09-23T03:11:41.689Z,0
2017-09-23T03:12:41.402Z,0
2017-09-23T03:13:41.407Z,0
2017-09-23T03:14:41.438Z,0
2017-09-23T03:15:41.459Z,0
2017-09-23T03:16:41.480Z,0
2017-09-23T03:17:41.514Z,0
2017-09-23T03:18:41.519Z,0
2017-09-23T03:19:41.532Z,0
2017-09-23T03:20:41.555Z,0
2017-09-23T03:21:41.580Z,0
2017-09-23T03:22:41.599Z,0
2017-09-23T03:23:41.626Z,0
2017-09-23T03:24:41.641Z,0
2017-09-23T03:25:41.659Z,0
2017-09-23T03:26:41.687Z,0
2017-09-23T03:27:41.703Z,0
2017-09-23T03:28:41.721Z,0
2017-09-23T03:29:41.736Z,0
2017-09-23T03:30:41.764Z,0
2017-09-23T03:31:41.783Z,0
2017-09-23T03:32:41.804Z,0
2017-09-23T03:33:42.141Z,0
2017-09-23T03:34:41.850Z,0
2017-09-23T03:35:41.913Z,0
2017-09-23T03:36:42.196Z,0
2017-09-23T03:37:41.912Z,0
2017-09-23T03:38:41.927Z,0
2017-09-23T03:39:41.951Z,0
2017-09-23T03:40:42.162Z,0
2017-09-23T03:41:41.985Z,0
2017-09-23T03:42:42.012Z,0
2017-09-23T03:43:42.663Z,0
2017-09-23T03:44:42.362Z,0
2017-09-23T03:45:42.063Z,0
2017-09-23T03:46:42.078Z,0
2017-09-23T03:47:42.420Z,0
2017-09-23T03:48:42.130Z,0
2017-09-23T03:49:42.143Z,0
2017-09-23T03:50:42.160Z,0
2017-09-23T03:51:42.498Z,0
2017-09-23T03:52:42.224Z,0
2017-09-23T03:53:42.231Z,0
2017-09-23T03:54:42.574Z,0
2017-09-23T03:55:42.320Z,0
2017-09-23T03:56:42.288Z,0
2017-09-23T03:57:42.617Z,0
2017-09-23T03:58:42.332Z,0
2017-09-23T03:59:42.673Z,0
2017-09-23T04:00:42.373Z,0
2017-09-23T04:01:42.392Z,0
2017-09-23T04:02:42.413Z,0
2017-09-23T04:03:42.432Z,0
2017-09-23T04:04:42.464Z,0
2017-09-23T04:05:42.474Z,0
2017-09-23T04:06:42.821Z,0
2017-09-23T04:07:42.522Z,0
2017-09-23T04:08:42.533Z,0
2017-09-23T04:09:42.866Z,0
2017-09-23T04:10:42.627Z,0
2017-09-23T04:11:42.592Z,0
2017-09-23T04:12:42.616Z,0
2017-09-23T04:13:42.945Z,0
2017-09-23T04:14:42.654Z,0
2017-09-23T04:15:43.192Z,0
2017-09-23T04:16:43.037Z,0
2017-09-23T04:17:42.716Z,0
2017-09-23T04:18:42.748Z,0
2017-09-23T04:19:42.758Z,0
2017-09-23T04:20:42.778Z,0
2017-09-23T04:21:43.105Z,0
2017-09-23T04:22:43.134Z,0
2017-09-23T04:23:42.845Z,0
2017-09-23T04:24:42.869Z,0
2017-09-23T04:25:42.880Z,0
2017-09-23T04:26:42.946Z,0
2017-09-23T04:27:43.235Z,0
2017-09-23T04:28:42.940Z,0
2017-09-23T04:29:42.963Z,0
2017-09-23T04:30:43.023Z,0
2017-09-23T04:31:43.003Z,0
2017-09-23T04:32:43.047Z,0
2017-09-23T04:33:43.043Z,0
2017-09-23T04:34:43.062Z,0
2017-09-23T04:35:43.083Z,0
2017-09-23T04:36:43.103Z,0
2017-09-23T04:37:43.123Z,0
2017-09-23T04:38:43.171Z,0
2017-09-23T04:39:43.478Z,0
2017-09-23T04:40:43.184Z,0
2017-09-23T04:41:43.221Z,0
2017-09-23T04:42:43.248Z,0
2017-09-23T04:43:43.251Z,0
2017-09-23T04:44:43.278Z,0
2017-09-23T04:45:43.291Z,0
2017-09-23T04:46:43.311Z,0
2017-09-23T04:47:43.335Z,0
2017-09-23T04:48:43.680Z,0
2017-09-23T04:49:43.376Z,0
2017-09-23T04:50:43.384Z,0
2017-09-23T04:51:43.409Z,0
2017-09-23T04:52:43.425Z,0
2017-09-23T04:53:43.455Z,0
2017-09-23T04:54:43.566Z,0
2017-09-23T04:55:43.502Z,0
2017-09-23T04:56:43.510Z,0
2017-09-23T04:57:43.532Z,0
2017-09-23T04:58:43.559Z,0
2017-09-23T04:59:43.631Z,5
2017-09-23T05:00:43.591Z,5
2017-09-23T05:01:43.613Z,5
2017-09-23T05:02:43.645Z,5
2017-09-23T05:03:44.006Z,5
2017-09-23T05:04:43.702Z,5
2017-09-23T05:05:43.695Z,5
2017-09-23T05:06:44.030Z,10
2017-09-23T05:07:43.732Z,10
2017-09-23T05:08:44.064Z,10
2017-09-23T05:09:43.789Z,10
2017-09-23T05:10:43.800Z,10
2017-09-23T05:11:43.821Z,10
2017-09-23T05:12:44.164Z,15
2017-09-23T05:13:43.857Z,15
2017-09-23T05:14:43.921Z,15
2017-09-23T05:15:44.217Z,15
2017-09-23T05:16:43.924Z,20
2017-09-23T05:17:43.935Z,20
2017-09-23T05:18:44.263Z,20
2017-09-23T05:19:43.987Z,20
2017-09-23T05:20:44.049Z,20
2017-09-23T05:21:44.015Z,25
2017-09-23T05:22:44.061Z,25
2017-09-23T05:23:44.067Z,25
2017-09-23T05:24:44.076Z,25
2017-09-23T05:25:44.430Z,30
2017-09-23T05:26:44.119Z,30
2017-09-23T05:27:44.145Z,30
2017-09-23T05:28:44.163Z,30
2017-09-23T05:29:44.235Z,35
2017-09-23T05:30:44.211Z,35
2017-09-23T05:31:44.217Z,35
2017-09-23T05:32:44.242Z,40
2017-09-23T05:33:44.260Z,40
2017-09-23T05:34:44.288Z,40
2017-09-23T05:35:44.608Z,40
2017-09-23T05:36:44.321Z,45
2017-09-23T05:37:44.342Z,45
2017-09-23T05:38:44.364Z,45
2017-09-23T05:39:44.402Z,50
2017-09-23T05:40:44.417Z,50
2017-09-23T05:41:44.767Z,50
2017-09-23T05:42:44.445Z,50
2017-09-23T05:43:44.464Z,55
2017-09-23T05:44:44.532Z,55
2017-09-23T05:45:44.504Z,55
2017-09-23T05:46:44.526Z,55
2017-09-23T05:47:44.539Z,60
2017-09-23T05:48:44.562Z,60
2017-09-23T05:49:44.887Z,60
2017-09-23T05:50:44.605Z,65
2017-09-23T05:51:44.621Z,65
2017-09-23T05:52:44.639Z,65
2017-09-23T05:53:44.667Z,65
2017-09-23T05:54:44.689Z,70
2017-09-23T05:55:44.704Z,70
2017-09-23T05:56:44.731Z,70
2017-09-23T05:57:44.750Z,75
2017-09-23T05:58:44.765Z,75
2017-09-23T05:59:44.796Z,75
2017-09-23T06:00:45.139Z,80
2017-09-23T06:01:44.826Z,80
2017-09-23T06:02:44.860Z,80
2017-09-23T06:03:44.869Z,85
2017-09-23T06:04:44.884Z,85
2017-09-23T06:05:44.908Z,90
2017-09-23T06:06:44.923Z,90
2017-09-23T06:07:44.954Z,95
2017-09-23T06:08:44.975Z,95
2017-09-23T06:09:44.988Z,100
2017-09-23T06:10:45.331Z,100
2017-09-23T06:11:45.032Z,105
2017-09-23T06:12:45.064Z,110
2017-09-23T06:13:45.396Z,110
2017-09-23T06:14:45.406Z,105
2017-09-23T06:15:45.118Z,105
2017-09-23T06:16:45.138Z,105
2017-09-23T06:17:45.159Z,105
2017-09-23T06:18:45.223Z,105
2017-09-23T06:19:45.234Z,105
2017-09-23T06:20:45.241Z,105
2017-09-23T06:21:45.551Z,105
2017-09-23T06:22:45.266Z,110
2017-09-23T06:23:45.286Z,115
2017-09-23T06:24:45.306Z,115
2017-09-23T06:25:45.330Z,120
2017-09-23T06:26:45.357Z,120
2017-09-23T06:27:45.377Z,125
2017-09-23T06:28:45.408Z,130
2017-09-23T06:29:45.440Z,130
2017-09-23T06:30:45.431Z,130
2017-09-23T06:31:45.458Z,135
2017-09-23T06:32:45.474Z,135
2017-09-23T06:33:45.498Z,135
2017-09-23T06:34:45.568Z,140
2017-09-23T06:35:45.858Z,140
2017-09-23T06:36:45.554Z,150
2017-09-23T06:37:45.583Z,140
2017-09-23T06:38:45.603Z,145
2017-09-23T06:39:45.626Z,145
2017-09-23T06:40:45.650Z,150
2017-09-23T06:41:45.671Z,150
2017-09-23T06:42:45.689Z,170
2017-09-23T06:43:45.703Z,165
2017-09-23T06:44:45.728Z,170
2017-09-23T06:45:46.085Z,170
2017-09-23T06:46:45.774Z,160
2017-09-23T06:47:45.802Z,165
2017-09-23T06:48:45.815Z,185
2017-09-23T06:49:45.912Z,190
2017-09-23T06:50:46.483Z,185
2017-09-23T06:51:45.895Z,190
2017-09-23T06:52:45.909Z,185
2017-09-23T06:53:45.927Z,180
2017-09-23T06:54:46.256Z,180
2017-09-23T06:55:46.070Z,190
2017-09-23T06:56:46.619Z,190
2017-09-23T06:57:46.321Z,190
2017-09-23T06:58:46.038Z,200
2017-09-23T06:59:46.057Z,200
2017-09-23T07:00:46.074Z,190
2017-09-23T07:01:46.106Z,185
2017-09-23T07:02:46.116Z,185
2017-09-23T07:03:46.167Z,195
2017-09-23T07:04:46.204Z,190
2017-09-23T07:05:46.245Z,195
2017-09-23T07:06:46.537Z,195
2017-09-23T07:07:46.241Z,195
2017-09-23T07:08:46.264Z,195
2017-09-23T07:09:46.281Z,195
2017-09-23T07:10:46.934Z,195
2017-09-23T07:11:46.332Z,195
2017-09-23T07:12:46.352Z,200
2017-09-23T07:13:46.368Z,200
2017-09-23T07:14:46.405Z,205
2017-09-23T07:15:46.862Z,205
2017-09-23T07:16:46.437Z,205
2017-09-23T07:17:46.777Z,205
2017-09-23T07:18:46.483Z,205
2017-09-23T07:19:46.503Z,205
2017-09-23T07:20:46.588Z,205
2017-09-23T07:21:46.869Z,205
2017-09-23T07:22:46.574Z,205
2017-09-23T07:23:46.597Z,205
2017-09-23T07:24:46.814Z,205
2017-09-23T07:25:46.642Z,205
2017-09-23T07:26:46.672Z,205
2017-09-23T07:27:46.997Z,210
2017-09-23T07:28:46.783Z,210
2017-09-23T07:29:46.736Z,215
2017-09-23T07:30:46.757Z,220
2017-09-23T07:31:46.777Z,225
2017-09-23T07:32:47.115Z,230
2017-09-23T07:33:46.827Z,235
2017-09-23T07:34:46.849Z,240
2017-09-23T07:35:46.925Z,250
2017-09-23T07:36:46.897Z,250
2017-09-23T07:37:47.519Z,245
2017-09-23T07:38:46.940Z,250
2017-09-23T07:39:46.966Z,245
2017-09-23T07:40:47.294Z,245
2017-09-23T07:41:47.010Z,255
2017-09-23T07:42:47.035Z,245
2017-09-23T07:43:47.061Z,245
2017-09-23T07:44:47.091Z,245
2017-09-23T07:45:47.416Z,240
2017-09-23T07:46:47.127Z,240
2017-09-23T07:47:47.152Z,240
2017-09-23T07:48:47.173Z,230
2017-09-23T07:49:47.203Z,225
2017-09-23T07:50:47.228Z,225
2017-09-23T07:51:47.553Z,225
2017-09-23T07:52:47.299Z,220
2017-09-23T07:53:47.294Z,225
2017-09-23T07:54:47.624Z,220
2017-09-23T07:55:47.345Z,230
2017-09-23T07:56:47.662Z,235
2017-09-23T07:57:47.386Z,245
2017-09-23T07:58:47.414Z,255
2017-09-23T07:59:47.461Z,260
2017-09-23T08:00:48.082Z,270
2017-09-23T08:01:47.475Z,280
2017-09-23T08:02:47.506Z,280
2017-09-23T08:03:47.863Z,285
2017-09-23T08:04:47.861Z,320
2017-09-23T08:05:47.590Z,305
2017-09-23T08:06:47.599Z,290
2017-09-23T08:07:47.618Z,290
2017-09-23T08:08:47.646Z,295
2017-09-23T08:09:47.676Z,310
2017-09-23T08:10:47.740Z,305
2017-09-23T08:11:48.027Z,310
2017-09-23T08:12:48.051Z,305
2017-09-23T08:13:47.775Z,305
2017-09-23T08:14:47.784Z,295
2017-09-23T08:15:47.812Z,290
2017-09-23T08:16:47.843Z,290
2017-09-23T08:17:47.859Z,285
2017-09-23T08:18:47.881Z,295
2017-09-23T08:19:47.901Z,285
2017-09-23T08:20:47.939Z,285
2017-09-23T08:21:47.953Z,285
2017-09-23T08:22:47.975Z,295
2017-09-23T08:23:48.014Z,290
2017-09-23T08:24:48.015Z,295
2017-09-23T08:25:48.361Z,310
2017-09-23T08:26:48.124Z,295
2017-09-23T08:27:48.094Z,305
2017-09-23T08:28:48.121Z,300
2017-09-23T08:29:48.145Z,315
2017-09-23T08:30:48.183Z,300
2017-09-23T08:31:48.189Z,300
2017-09-23T08:32:48.210Z,320
2017-09-23T08:33:48.236Z,315
2017-09-23T08:34:48.255Z,315
2017-09-23T08:35:48.607Z,315
2017-09-23T08:36:48.318Z,330
2017-09-23T08:37:48.954Z,340
2017-09-23T08:38:48.671Z,345
2017-09-23T08:39:48.706Z,355
2017-09-23T08:40:48.408Z,385
2017-09-23T08:41:48.471Z,385
2017-09-23T08:42:48.448Z,375
2017-09-23T08:43:48.481Z,370
2017-09-23T08:44:48.503Z,395
2017-09-23T08:45:48.831Z,355
2017-09-23T08:46:48.549Z,375
2017-09-23T08:47:48.581Z,380
2017-09-23T08:48:48.596Z,425
2017-09-23T08:49:48.630Z,390
2017-09-23T08:50:48.961Z,370
2017-09-23T08:51:48.666Z,405
2017-09-23T08:52:49.007Z,445
2017-09-23T08:53:48.721Z,425
2017-09-23T08:54:48.755Z,415
2017-09-23T08:55:49.093Z,385
2017-09-23T08:56:48.849Z,390
2017-09-23T08:57:48.816Z,380
2017-09-23T08:58:48.834Z,400
2017-09-23T08:59:48.868Z,410
2017-09-23T09:00:48.893Z,370
2017-09-23T09:01:48.917Z,440
2017-09-23T09:02:48.953Z,420
2017-09-23T09:03:49.278Z,420
2017-09-23T09:04:48.991Z,405
2017-09-23T09:05:49.020Z,410
2017-09-23T09:06:49.040Z,420
2017-09-23T09:07:49.059Z,425
2017-09-23T09:08:49.087Z,425
2017-09-23T09:09:49.112Z,435
2017-09-23T09:10:49.140Z,445
2017-09-23T09:11:49.172Z,455
2017-09-23T09:12:49.195Z,460
2017-09-23T09:13:49.221Z,465
2017-09-23T09:14:49.570Z,460
2017-09-23T09:15:49.273Z,455
2017-09-23T09:16:49.619Z,455
2017-09-23T09:17:49.348Z,445
2017-09-23T09:18:49.347Z,440
2017-09-23T09:19:49.365Z,405
2017-09-23T09:20:49.405Z,425
2017-09-23T09:21:49.471Z,430
2017-09-23T09:22:49.440Z,430
2017-09-23T09:23:49.793Z,430
2017-09-23T09:24:49.524Z,430
2017-09-23T09:25:49.524Z,435
2017-09-23T09:26:49.554Z,430
2017-09-23T09:27:49.583Z,435
2017-09-23T09:28:49.603Z,440
2017-09-23T09:29:49.634Z,445
2017-09-23T09:30:49.665Z,440
2017-09-23T09:31:49.747Z,440
2017-09-23T09:32:49.700Z,455
2017-09-23T09:33:49.725Z,600
2017-09-23T09:34:49.753Z,820
2017-09-23T09:35:50.095Z,880
2017-09-23T09:36:50.129Z,890
2017-09-23T09:37:49.827Z,905
2017-09-23T09:38:49.859Z,910
2017-09-23T09:39:49.878Z,940
2017-09-23T09:40:49.908Z,945
2017-09-23T09:41:49.938Z,950
2017-09-23T09:42:49.967Z,965
2017-09-23T09:43:49.992Z,980
2017-09-23T09:44:50.019Z,1015
2017-09-23T09:45:50.041Z,1025
2017-09-23T09:46:50.071Z,1045
2017-09-23T09:47:50.463Z,1050
2017-09-23T09:48:50.142Z,1050
2017-09-23T09:49:50.162Z,1090
2017-09-23T09:50:50.184Z,1075
2017-09-23T09:51:50.205Z,1085
2017-09-23T09:52:50.246Z,1100
2017-09-23T09:53:50.268Z,1130
2017-09-23T09:54:50.601Z,1125
2017-09-23T09:55:50.327Z,1145
2017-09-23T09:56:50.353Z,1160
2017-09-23T09:57:50.386Z,1165
2017-09-23T09:58:50.416Z,1155
2017-09-23T09:59:50.439Z,1155
2017-09-23T10:00:50.474Z,1150
2017-09-23T10:01:50.496Z,1200
2017-09-23T10:02:50.529Z,1165
2017-09-23T10:03:50.580Z,1165
2017-09-23T10:04:50.921Z,1155
2017-09-23T10:05:50.614Z,1170
2017-09-23T10:06:50.700Z,1140
2017-09-23T10:07:50.675Z,1160
2017-09-23T10:08:51.015Z,1125
2017-09-23T10:09:50.736Z,1055
2017-09-23T10:10:50.766Z,1055
2017-09-23T10:11:50.795Z,1035
2017-09-23T10:12:50.827Z,1015
2017-09-23T10:13:50.868Z,985
2017-09-23T10:14:50.888Z,980
2017-09-23T10:15:50.928Z,950
2017-09-23T10:16:50.947Z,920
2017-09-23T10:17:51.289Z,925
2017-09-23T10:18:51.007Z,945
2017-09-23T10:19:51.039Z,925
2017-09-23T10:20:51.070Z,890
2017-09-23T10:21:51.103Z,875
2017-09-23T10:22:51.134Z,855
2017-09-23T10:23:51.182Z,840
2017-09-23T10:24:51.193Z,850
2017-09-23T10:25:51.285Z,860
2017-09-23T10:26:51.255Z,805
2017-09-23T10:27:51.294Z,875
2017-09-23T10:28:51.320Z,890
2017-09-23T10:29:51.349Z,860
2017-09-23T10:30:51.387Z,680
2017-09-23T10:31:51.413Z,860
2017-09-23T10:32:51.444Z,855
2017-09-23T10:33:51.479Z,860
2017-09-23T10:34:51.505Z,885
2017-09-23T10:35:51.546Z,905
2017-09-23T10:36:51.591Z,920
2017-09-23T10:37:51.629Z,915
2017-09-23T10:38:51.647Z,895
2017-09-23T10:39:51.670Z,875
2017-09-23T10:40:51.715Z,890
2017-09-23T10:41:51.794Z,920
2017-09-23T10:42:52.104Z,885
2017-09-23T10:43:51.808Z,885
2017-09-23T10:44:51.845Z,905
2017-09-23T10:45:51.874Z,850
2017-09-23T10:46:51.905Z,885
2017-09-23T10:47:51.942Z,880
2017-09-23T10:48:51.987Z,845
2017-09-23T10:49:51.998Z,875
2017-09-23T10:50:52.035Z,895
2017-09-23T10:51:52.073Z,890
2017-09-23T10:52:52.113Z,885
2017-09-23T10:53:52.452Z,880
2017-09-23T10:54:52.180Z,890
2017-09-23T10:55:52.211Z,905
2017-09-23T10:56:52.236Z,940
2017-09-23T10:57:52.341Z,905
2017-09-23T10:58:52.621Z,915
2017-09-23T10:59:52.352Z,915
2017-09-23T11:00:52.372Z,955
2017-09-23T11:01:52.419Z,950
2017-09-23T11:02:52.451Z,930
2017-09-23T11:03:52.486Z,930
2017-09-23T11:04:52.528Z,940
2017-09-23T11:05:53.254Z,975
2017-09-23T11:06:52.573Z,995
2017-09-23T11:07:52.613Z,1005
2017-09-23T11:08:52.643Z,1025
2017-09-23T11:09:52.682Z,1035
2017-09-23T11:10:52.725Z,1020
2017-09-23T11:11:52.750Z,1060
2017-09-23T11:12:53.407Z,1075
2017-09-23T11:13:52.819Z,1090
2017-09-23T11:14:53.273Z,1200
2017-09-23T11:15:52.890Z,1170
2017-09-23T11:16:52.982Z,1170
2017-09-23T11:17:52.949Z,1200
2017-09-23T11:18:52.979Z,1260
2017-09-23T11:19:53.440Z,1290
2017-09-23T11:20:53.512Z,1315
2017-09-23T11:21:53.091Z,1225
2017-09-23T11:22:53.115Z,975
2017-09-23T11:23:53.158Z,1015
2017-09-23T11:24:53.495Z,1215
2017-09-23T11:25:53.221Z,1315
2017-09-23T11:26:53.259Z,1355
2017-09-23T11:27:53.610Z,1275
2017-09-23T11:28:53.332Z,795
2017-09-23T11:29:53.675Z,1115
2017-09-23T11:30:53.388Z,905
2017-09-23T11:31:53.481Z,640
2017-09-23T11:32:53.468Z,575
2017-09-23T11:33:53.493Z,570
2017-09-23T11:34:53.529Z,555
2017-09-23T11:35:53.591Z,600
2017-09-23T11:36:53.596Z,805
2017-09-23T11:37:53.943Z,730
2017-09-23T11:38:54.213Z,1295
2017-09-23T11:39:53.700Z,1685
2017-09-23T11:40:53.723Z,1240
2017-09-23T11:41:53.759Z,545
2017-09-23T11:42:53.787Z,560
2017-09-23T11:43:53.861Z,880
2017-09-23T11:44:53.850Z,1755
2017-09-23T11:45:53.894Z,1830
2017-09-23T11:46:54.066Z,1860
2017-09-23T11:47:54.792Z,1925
2017-09-23T11:48:55.500Z,1975
2017-09-23T11:49:54.019Z,1940
2017-09-23T11:50:54.060Z,1860
2017-09-23T11:51:54.079Z,1905
2017-09-23T11:52:54.157Z,2015
2017-09-23T11:53:54.163Z,2000
2017-09-23T11:54:58.047Z,1945
2017-09-23T11:55:54.705Z,1920
2017-09-23T11:56:54.258Z,1935
2017-09-23T11:57:54.287Z,1940
2017-09-23T11:58:54.332Z,1945
2017-09-23T11:59:54.355Z,2035
2017-09-23T12:00:54.409Z,2060
2017-09-23T12:01:54.426Z,2075
2017-09-23T12:02:54.466Z,2035
2017-09-23T12:03:54.826Z,2005
2017-09-23T12:04:59.139Z,1975
2017-09-23T12:05:54.639Z,2125
2017-09-23T12:06:54.594Z,2170
2017-09-23T12:07:54.642Z,2030
2017-09-23T12:08:54.670Z,2070
2017-09-23T12:09:56.112Z,2050
2017-09-23T12:10:55.275Z,2125
2017-09-23T12:11:55.096Z,2255
2017-09-23T12:12:54.816Z,2180
2017-09-23T12:13:54.855Z,2080
2017-09-23T12:14:54.895Z,2050
2017-09-23T12:15:54.942Z,2190
2017-09-23T12:16:54.972Z,2275
2017-09-23T12:17:55.355Z,2220
2017-09-23T12:18:55.131Z,2280
2017-09-23T12:19:55.091Z,2130
2017-09-23T12:20:55.172Z,2120
2017-09-23T12:21:55.476Z,2095
2017-09-23T12:22:55.186Z,2135
2017-09-23T12:23:55.230Z,2110
2017-09-23T12:24:55.582Z,1965
2017-09-23T12:25:55.293Z,1970
2017-09-23T12:26:55.343Z,2105
2017-09-23T12:27:55.378Z,2170
2017-09-23T12:28:55.425Z,2135
2017-09-23T12:29:55.778Z,2145
2017-09-23T12:30:56.725Z,2165
2017-09-23T12:31:55.988Z,2190
2017-09-23T12:32:55.562Z,2225
2017-09-23T12:33:55.648Z,2155
2017-09-23T12:34:55.626Z,1980
2017-09-23T12:35:55.666Z,2045
2017-09-23T12:36:55.707Z,1890
2017-09-23T12:37:55.736Z,840
2017-09-23T12:38:56.050Z,1450
2017-09-23T12:39:55.812Z,1780
2017-09-23T12:40:55.845Z,1590
2017-09-23T12:41:55.882Z,1955
2017-09-23T12:43:31.078Z,2180
2017-09-23T12:43:56.608Z,2235
2017-09-23T12:44:55.999Z,2190
2017-09-23T12:45:56.037Z,2200
2017-09-23T12:46:56.388Z,2055
2017-09-23T12:47:56.119Z,1915
2017-09-23T12:48:56.152Z,2040
2017-09-23T12:49:56.498Z,2005
2017-09-23T12:50:56.215Z,1045
2017-09-23T12:51:56.257Z,785
2017-09-23T12:52:56.320Z,1025
2017-09-23T12:53:56.380Z,1795
2017-09-23T12:54:56.379Z,1985
2017-09-23T12:55:56.400Z,1905
2017-09-23T12:56:56.442Z,1920
2017-09-23T12:57:56.477Z,1185
2017-09-23T12:59:34.531Z,650
2017-09-23T12:59:56.546Z,635
2017-09-23T13:00:56.593Z,580
2017-09-23T13:01:56.998Z,630
2017-09-23T13:02:56.663Z,590
2017-09-23T13:03:56.692Z,585
2017-09-23T13:04:56.724Z,585
2017-09-23T13:05:57.071Z,550
2017-09-23T13:06:56.794Z,515
2017-09-23T13:07:57.024Z,480
2017-09-23T13:08:57.688Z,445
2017-09-23T13:09:57.214Z,445
2017-09-23T13:10:56.930Z,465
2017-09-23T13:11:56.990Z,495
2017-09-23T13:12:57.312Z,515
2017-09-23T13:13:57.028Z,540
2017-09-23T13:14:57.687Z,575
2017-09-23T13:15:57.088Z,605
2017-09-23T13:16:57.119Z,610
2017-09-23T13:17:57.157Z,625
2017-09-23T13:18:57.529Z,625
2017-09-23T13:19:57.234Z,655
2017-09-23T13:20:57.250Z,700
2017-09-23T13:21:59.280Z,700
2017-09-23T13:22:57.744Z,735
2017-09-23T13:23:57.842Z,2015
2017-09-23T13:25:00.597Z,2165
2017-09-23T13:25:59.534Z,2010
2017-09-23T13:27:00.839Z,1905
2017-09-23T13:27:57.469Z,1880
2017-09-23T13:28:57.569Z,1845
2017-09-23T13:29:57.536Z,1890
2017-09-23T13:30:57.571Z,2005
2017-09-23T13:31:57.598Z,1980
2017-09-23T13:32:57.637Z,1925
2017-09-23T13:33:57.674Z,1600
2017-09-23T13:34:59.588Z,910
2017-09-23T13:35:58.670Z,815
2017-09-23T13:36:57.775Z,740
2017-09-23T13:37:57.811Z,725
2017-09-23T13:38:58.220Z,720
2017-09-23T13:39:57.865Z,750
2017-09-23T13:40:58.213Z,1015
2017-09-23T13:41:57.933Z,1860
2017-09-23T13:43:01.380Z,1875
2017-09-23T13:43:58.333Z,1040
2017-09-23T13:44:58.053Z,825
2017-09-23T13:45:58.066Z,880
2017-09-23T13:46:58.107Z,785
2017-09-23T13:47:58.184Z,775
2017-09-23T13:48:58.165Z,765
2017-09-23T13:49:58.198Z,740
2017-09-23T13:50:58.229Z,735
2017-09-23T13:51:58.295Z,735
2017-09-23T13:52:58.616Z,910
2017-09-23T13:53:58.386Z,1190
2017-09-23T13:54:58.360Z,905
2017-09-23T13:55:58.390Z,1190
2017-09-23T13:56:58.427Z,1800
2017-09-23T13:57:58.458Z,1960
2017-09-23T13:58:58.487Z,2065
2017-09-23T13:59:58.520Z,2105
2017-09-23T14:00:58.872Z,2080
2017-09-23T14:01:58.598Z,2050
2017-09-23T14:02:58.643Z,2015
2017-09-23T14:03:58.967Z,2095
2017-09-23T14:04:59.001Z,2200